• Join FlightAware (Why Join?)
  • Login
  • US Flag 
12:19PM EDT


 

Airport Tracker/Info


-or-


 

Live Flight TrackerFlight Track Log ✈ ASH3756 ✈ 21-Aug-2013 ✈ KMCI - KIAD

Flight Track Log - Related Links

Times and Time Zones

All times are in EDT time to prevent confusion due to time zone crossing. See the ASH3756 flight status page for this flight to view local times or setup timezone preferences in your user account.

Time Position Orientation Groundspeed Altitude Reporting Facility
EDT Latitude Longitude Course Direction KTS MPH feet Rate Location/Type
08:10PM 39.2833 -94.7333 360° North 169 194 1,800  Level Kansas City TRACON
08:10PM 39.2833 -94.7333 179° South 176 203 2,000 1,200 Climbing Kansas City TRACON
08:10PM 39.2569 -94.7328 179° South 178 205 2,700 1,380 Climbing Kansas City Center
08:12PM 39.1950 -94.7169 169° South 233 268 4,300 1,920 Climbing Kansas City Center
08:13PM 39.1125 -94.6972 169° South 266 306 6,700 2,160 Climbing Kansas City Center
08:14PM 39.0897 -94.6047 108° East 291 335 8,700 2,100 Climbing Kansas City Center
08:15PM 39.1303 -94.4994 64° Northeast 295 339 11,100 1,800 Climbing Kansas City Center
08:16PM 39.1753 -94.4039 59° Northeast 321 369 12,500 1,440 Climbing Kansas City Center
08:17PM 39.2322 -94.2822 59° Northeast 354 407 14,200 1,500 Climbing Kansas City Center
08:18PM 39.2836 -94.1725 59° Northeast 372 428 15,600 1,500 Climbing Kansas City Center
08:19PM 39.3467 -94.0394 58° Northeast 388 447 17,300 1,440 Climbing Kansas City Center
08:20PM 39.3922 -93.9172 64° Northeast 397 457 18,700 1,500 Climbing Kansas City Center
08:21PM 39.4083 -93.7561 83° East 403 464 20,400 1,440 Climbing Kansas City Center
08:22PM 39.4264 -93.6308 79° East 405 466 21,700 1,320 Climbing Kansas City Center
08:23PM 39.4425 -93.4897 82° East 403 464 23,200 1,500 Climbing Kansas City Center
08:24PM 39.4639 -93.3208 81° East 401 461 24,800 1,260 Climbing Kansas City Center
08:25PM 39.4814 -93.1769 81° East 405 466 25,800 960 Climbing Kansas City Center
08:26PM 39.4989 -93.0267 81° East 420 483 26,800 960 Climbing Kansas City Center
08:27PM 39.5156 -92.8756 82° East 427 491 27,800 840 Climbing Kansas City Center
08:28PM 39.5331 -92.7228 82° East 431 496 28,500 600 Climbing Kansas City Center
08:29PM 39.5542 -92.5344 82° East 438 504 29,100 480 Climbing Kansas City Center
08:30PM 39.5725 -92.3722 82° East 448 516 29,600 600 Climbing Kansas City Center
08:31PM 39.5911 -92.2069 82° East 460 529 30,400 780 Climbing Kansas City Center
08:32PM 39.6089 -92.0419 82° East 466 536 31,300 960 Climbing Kansas City Center
08:33PM 39.6269 -91.8806 82° East 463 533 32,400 1,020 Climbing Kansas City Center
08:34PM 39.6478 -91.6894 82° East 456 525 33,500 960 Climbing Kansas City Center
08:35PM 39.6650 -91.5314 82° East 452 520 34,500 720 Climbing Kansas City Center
08:36PM 39.6808 -91.3758 82° East 445 512 35,000 240 Climbing Kansas City Center
08:37PM 39.6975 -91.2000 83° East 450 518 35,000  Level Kansas City Center
08:38PM 39.7144 -91.0303 83° East 464 534 35,000  Level Kansas City Center
08:39PM 39.7308 -90.8636 83° East 466 536 35,000  Level Kansas City Center
08:40PM 39.7475 -90.6950 83° East 467 537 35,000  Level Kansas City Center
08:41PM 39.7650 -90.5114 83° East 472 543 35,000  Level Kansas City Center
08:42PM 39.7797 -90.3428 83° East 472 543 35,000  Level Kansas City Center
08:43PM 39.7956 -90.1736 83° East 473 544 35,000  Level Kansas City Center
08:44PM 39.8103 -90.0042 83° East 474 545 35,000  Level Kansas City Center
08:46PM 39.8289 -89.8011 83° East 474 545 35,000 60 Level Kansas City Center
08:47PM 39.8406 -89.6322 85° East 472 543 35,200 360 Climbing Kansas City Center
08:48PM 39.8406 -89.4617 90° East 473 544 35,800 540 Climbing Kansas City Center
08:49PM 39.8417 -89.2897 89° East 476 548 36,300 480 Climbing Kansas City Center
08:50PM 39.8417 -89.1217 90° East 472 543 36,800 300 Climbing Kansas City Center
08:51PM 39.8422 -88.9528 90° East 470 541 37,000 60 Climbing Kansas City Center
08:52PM 39.8431 -88.7511 90° East 467 537 37,000  Level Kansas City Center
08:53PM 39.8414 -88.5828 91° East 467 537 37,000  Level Kansas City Center
08:54PM 39.8428 -88.4156 89° East 464 534 37,000  Level Kansas City Center
08:55PM 39.8428 -88.2481 90° East 464 534 37,000  Level Kansas City Center
08:56PM 39.8408 -88.0858 91° East 465 535 37,000  Level Kansas City Center
08:57PM 39.8403 -87.8836 90° East 464 534 37,000  Level Kansas City Center
08:58PM 39.8378 -87.7150 91° East 464 534 37,000  Level Kansas City Center
08:59PM 39.8353 -87.5458 91° East 465 535 37,000  Level Kansas City Center
09:00PM 39.8325 -87.3989 91° East 463 533 37,000  Level Indianapolis Center
09:01PM 39.8303 -87.2322 91° East 463 533 37,000  Level Indianapolis Center
09:02PM 39.8283 -87.0319 91° East 464 534 37,000  Level Indianapolis Center
09:03PM 39.8253 -86.8653 91° East 463 533 37,000  Level Indianapolis Center
09:04PM 39.8219 -86.6992 91° East 461 531 37,000  Level Indianapolis Center
09:05PM 39.8197 -86.5319 91° East 463 533 37,000  Level Indianapolis Center
09:06PM 39.8158 -86.3611 92° East 467 537 37,000  Level Indianapolis Center
09:07PM 39.8200 -86.2039 88° East 469 540 37,000  Level Indianapolis Center
09:08PM 39.8261 -86.0144 88° East 467 537 37,000  Level Indianapolis Center
09:09PM 39.8303 -85.8481 88° East 462 532 37,000  Level Indianapolis Center
09:10PM 39.8347 -85.6814 88° East 462 532 37,000  Level Indianapolis Center
09:11PM 39.8392 -85.5133 88° East 465 535 37,000  Level Indianapolis Center
09:12PM 39.8425 -85.3467 88° East 463 533 37,000  Level Indianapolis Center
09:13PM 39.8469 -85.1797 88° East 464 534 37,000  Level Indianapolis Center
09:14PM 39.8503 -84.9808 89° East 461 531 37,000  Level Indianapolis Center
09:15PM 39.8531 -84.8181 89° East 461 531 37,000  Level Indianapolis Center
09:16PM 39.8558 -84.6519 89° East 459 528 37,000  Level Indianapolis Center
09:17PM 39.8586 -84.4858 89° East 457 526 37,000  Level Indianapolis Center
09:18PM 39.8611 -84.3192 89° East 458 527 37,000  Level Indianapolis Center
09:19PM 39.8639 -84.1508 89° East 462 532 37,000  Level Indianapolis Center
09:20PM 39.8656 -83.9828 89° East 463 533 37,000  Level Indianapolis Center
09:21PM 39.8675 -83.8142 89° East 463 533 37,000  Level Indianapolis Center
09:22PM 39.8689 -83.6447 89° East 466 536 37,000  Level Indianapolis Center
09:23PM 39.8706 -83.4725 89° East 472 543 37,000  Level Indianapolis Center
09:24PM 39.8586 -83.2842 95° East 480 552 37,000  Level Indianapolis Center
09:25PM 39.8461 -83.1125 95° East 474 545 37,000  Level Indianapolis Center
09:26PM 39.8328 -82.9386 96° East 478 550 37,000  Level Indianapolis Center
09:28PM 39.8200 -82.7633 95° East 482 555 37,000  Level Indianapolis Center
09:29PM 39.8047 -82.5586 95° East 486 559 37,000  Level Indianapolis Center
09:30PM 39.7906 -82.3819 96° East 487 560 37,000  Level Indianapolis Center
09:31PM 39.7756 -82.2039 96° East 492 566 37,000  Level Indianapolis Center
09:32PM 39.7611 -82.0289 96° East 487 560 37,000  Level Indianapolis Center
09:33PM 39.7456 -81.8533 97° East 486 559 37,000  Level Indianapolis Center
09:34PM 39.7311 -81.6778 96° East 486 559 37,000  Level Indianapolis Center
09:35PM 39.7156 -81.5025 97° East 487 560 37,000  Level Indianapolis Center
09:36PM 39.6992 -81.3094 96° East 488 562 37,000  Level Indianapolis Center
09:37PM 39.6817 -81.1331 97° East 491 565 37,000  Level Indianapolis Center
09:38PM 39.6664 -80.9589 96° East 485 558 37,000  Level Indianapolis Center
09:39PM 39.6494 -80.7819 97° East 491 565 37,000  Level Indianapolis Center
09:40PM 39.6322 -80.6036 97° East 495 570 37,000  Level Indianapolis Center
09:41PM 39.6136 -80.4281 98° East 493 567 37,000 -840 Level Indianapolis Center
09:42PM 39.5958 -80.2497 97° East 498 573 35,400 -1,860 Descending Indianapolis Center
09:43PM 39.5775 -80.0725 98° East 497 572 33,300 -2,100 Descending Indianapolis Center
09:43PM 39.5694 -79.9692 96° East 486 559 32,200 -2,100 Descending Cleveland Center
09:44PM 39.5519 -79.8183 99° East 471 542 30,200 -2,040 Descending Cleveland Center
09:45PM 39.5214 -79.6575 104° East 465 535 28,200 -1,500 Descending Cleveland Center
09:47PM 39.4872 -79.4503 102° East 457 526 27,000 -1,020 Descending Washington Center
09:48PM 39.4569 -79.2900 104° East 457 526 26,000 -1,500 Descending Washington Center
09:49PM 39.4297 -79.1544 105° East 451 519 24,100 -1,980 Descending Washington Center
09:50PM 39.3992 -78.9836 103° East 423 487 21,700 -2,040 Descending Washington Center
09:51PM 39.3739 -78.8483 104° East 403 464 19,700 -1,920 Descending Washington Center
09:52PM 39.3522 -78.7183 102° East 382 440 17,900 -1,920 Descending Washington Center
09:53PM 39.3283 -78.5939 104° East 366 421 15,900 -1,980 Descending Washington Center
09:54PM 39.3064 -78.4725 103° East 360 414 14,000 -1,260 Descending Washington Center
09:55PM 39.2819 -78.3561 105° East 347 399 13,400 -1,140 Descending Washington Center
09:56PM 39.2297 -78.2603 125° Southeast 325 374 11,800 -1,620 Descending Washington Center
09:57PM 39.2197 -78.1528 97° East 314 361 10,200 -1,740 Descending Washington Center
09:58PM 39.2219 -78.0456 88° East 295 339 8,400 -1,740 Descending Washington Center
09:59PM 39.2258 -77.9467 87° East 290 334 6,700 -1,740 Descending Washington Center
10:00PM 39.2278 -77.8450 89° East 285 328 5,000 -1,740 Descending Washington Center
10:01PM 39.2278 -77.7406 90° East 279 321 3,300 -960 Descending Washington Center
10:02PM 39.1936 -77.6617 119° Southeast 247 284 3,100 -240 Descending Washington Center
10:02PM 39.1667 -77.6167 128° Southeast 257 296 3,000 -300 Descending Potomac TRACON
10:03PM 39.1167 -77.5500 134° Southeast 236 272 2,700 -420 Descending Potomac TRACON
10:04PM 39.0833 -77.5000 131° Southeast 179 206 2,200 -600 Descending Potomac TRACON
10:05PM 39.0500 -77.4667 142° Southeast 144 166 1,500 -540 Descending Potomac TRACON
10:06PM 39.0167 -77.4667 180° South 144 166 1,200 -300 Descending Potomac TRACON
10:08PM 38.9474 -77.4599 165° South  Level Estimated
10:15PM 38.9474 -77.4599 165° South  Level Estimated
10:16PM 38.9474 -77.4599 165° South  Level Estimated
10:17PM 38.9474 -77.4599 165° South  Level Estimated
10:18PM 38.9474 -77.4599 165° South  Level Estimated
10:19PM 38.9474 -77.4599 165° South  Level Estimated